sensor_id;sensor_type;location;lat;lon;timestamp;temperature;humidity
1992;DHT22;997;48.448;8.924;2023-11-21T00:00:15;8.30;99.90
1992;DHT22;997;48.448;8.924;2023-11-21T00:02:41;8.20;99.90
1992;DHT22;997;48.448;8.924;2023-11-21T00:05:11;8.30;99.90
1992;DHT22;997;48.448;8.924;2023-11-21T00:07:40;8.30;99.90
1992;DHT22;997;48.448;8.924;2023-11-21T00:10:06;8.30;99.90
1992;DHT22;997;48.448;8.924;2023-11-21T00:12:34;8.40;99.90
1992;DHT22;997;48.448;8.924;2023-11-21T00:15:00;8.40;99.90
1992;DHT22;997;48.448;8.924;2023-11-21T00:17:25;8.40;99.90
1992;DHT22;997;48.448;8.924;2023-11-21T00:19:51;8.50;99.90
1992;DHT22;997;48.448;8.924;2023-11-21T00:22:18;8.60;99.90
1992;DHT22;997;48.448;8.924;2023-11-21T00:24:43;8.60;99.90
1992;DHT22;997;48.448;8.924;2023-11-21T00:27:09;8.60;99.90
1992;DHT22;997;48.448;8.924;2023-11-21T00:29:35;8.60;99.90
1992;DHT22;997;48.448;8.924;2023-11-21T00:32:01;8.70;99.90
1992;DHT22;997;48.448;8.924;2023-11-21T00:34:27;8.70;99.90
1992;DHT22;997;48.448;8.924;2023-11-21T00:36:53;8.70;99.90
1992;DHT22;997;48.448;8.924;2023-11-21T00:39:18;8.70;99.90
1992;DHT22;997;48.448;8.924;2023-11-21T00:41:44;8.70;99.90
1992;DHT22;997;48.448;8.924;2023-11-21T00:44:13;8.60;99.90
1992;DHT22;997;48.448;8.924;2023-11-21T00:46:39;8.60;99.90
1992;DHT22;997;48.448;8.924;2023-11-21T00:49:05;8.60;99.90
1992;DHT22;997;48.448;8.924;2023-11-21T00:51:30;8.60;99.90
1992;DHT22;997;48.448;8.924;2023-11-21T00:53:56;8.60;99.90
1992;DHT22;997;48.448;8.924;2023-11-21T00:56:22;8.50;99.90
1992;DHT22;997;48.448;8.924;2023-11-21T00:58:47;8.50;99.90
1992;DHT22;997;48.448;8.924;2023-11-21T01:01:20;8.60;99.90
1992;DHT22;997;48.448;8.924;2023-11-21T01:03:48;8.60;99.90
1992;DHT22;997;48.448;8.924;2023-11-21T01:06:17;8.60;99.90
1992;DHT22;997;48.448;8.924;2023-11-21T01:08:44;8.60;99.90
1992;DHT22;997;48.448;8.924;2023-11-21T01:11:10;8.50;99.90
1992;DHT22;997;48.448;8.924;2023-11-21T01:13:41;8.50;99.90
1992;DHT22;997;48.448;8.924;2023-11-21T01:16:08;8.50;99.90
1992;DHT22;997;48.448;8.924;2023-11-21T01:18:35;8.40;99.90
1992;DHT22;997;48.448;8.924;2023-11-21T01:21:01;8.40;99.90
1992;DHT22;997;48.448;8.924;2023-11-21T01:23:27;8.40;99.90
1992;DHT22;997;48.448;8.924;2023-11-21T01:25:53;8.30;99.90
1992;DHT22;997;48.448;8.924;2023-11-21T01:28:18;8.40;99.90
1992;DHT22;997;48.448;8.924;2023-11-21T01:30:45;8.30;99.90
1992;DHT22;997;48.448;8.924;2023-11-21T01:33:11;8.40;99.90
1992;DHT22;997;48.448;8.924;2023-11-21T01:35:37;8.30;99.90
1992;DHT22;997;48.448;8.924;2023-11-21T01:38:03;8.30;99.90
1992;DHT22;997;48.448;8.924;2023-11-21T01:40:29;8.30;99.90
1992;DHT22;997;48.448;8.924;2023-11-21T01:42:55;8.30;99.90
1992;DHT22;997;48.448;8.924;2023-11-21T01:45:21;8.30;99.90
1992;DHT22;997;48.448;8.924;2023-11-21T01:47:47;8.40;99.90
1992;DHT22;997;48.448;8.924;2023-11-21T01:50:16;8.40;99.90
1992;DHT22;997;48.448;8.924;2023-11-21T01:52:45;8.40;99.90
1992;DHT22;997;48.448;8.924;2023-11-21T01:55:11;8.40;99.90
1992;DHT22;997;48.448;8.924;2023-11-21T01:57:40;8.40;99.90
1992;DHT22;997;48.448;8.924;2023-11-21T02:00:07;8.40;99.90
1992;DHT22;997;48.448;8.924;2023-11-21T02:02:43;8.50;99.90
1992;DHT22;997;48.448;8.924;2023-11-21T02:05:13;8.50;99.90
1992;DHT22;997;48.448;8.924;2023-11-21T02:07:40;8.50;99.90
1992;DHT22;997;48.448;8.924;2023-11-21T02:10:07;8.60;99.90
1992;DHT22;997;48.448;8.924;2023-11-21T02:12:33;8.60;99.90
1992;DHT22;997;48.448;8.924;2023-11-21T02:15:01;8.70;99.90
1992;DHT22;997;48.448;8.924;2023-11-21T02:17:28;8.60;99.90
1992;DHT22;997;48.448;8.924;2023-11-21T02:19:54;8.60;99.90
1992;DHT22;997;48.448;8.924;2023-11-21T02:22:19;8.60;99.90
1992;DHT22;997;48.448;8.924;2023-11-21T02:24:46;8.60;99.90
1992;DHT22;997;48.448;8.924;2023-11-21T02:27:13;8.60;99.90
1992;DHT22;997;48.448;8.924;2023-11-21T02:29:39;8.60;99.90
1992;DHT22;997;48.448;8.924;2023-11-21T02:32:05;8.50;99.90
1992;DHT22;997;48.448;8.924;2023-11-21T02:34:30;8.40;99.90
1992;DHT22;997;48.448;8.924;2023-11-21T02:36:56;8.40;99.90
1992;DHT22;997;48.448;8.924;2023-11-21T02:39:22;8.30;99.90
1992;DHT22;997;48.448;8.924;2023-11-21T02:41:49;8.30;99.90
1992;DHT22;997;48.448;8.924;2023-11-21T02:44:15;8.30;99.90
1992;DHT22;997;48.448;8.924;2023-11-21T02:46:41;8.30;99.90
1992;DHT22;997;48.448;8.924;2023-11-21T02:49:07;8.30;99.90
1992;DHT22;997;48.448;8.924;2023-11-21T02:51:33;8.40;99.90
1992;DHT22;997;48.448;8.924;2023-11-21T02:53:59;8.40;99.90
1992;DHT22;997;48.448;8.924;2023-11-21T02:56:26;8.40;99.90
1992;DHT22;997;48.448;8.924;2023-11-21T02:58:54;8.40;99.90
1992;DHT22;997;48.448;8.924;2023-11-21T03:01:20;8.40;99.90
1992;DHT22;997;48.448;8.924;2023-11-21T03:03:46;8.40;99.90
1992;DHT22;997;48.448;8.924;2023-11-21T03:06:13;8.30;99.90
1992;DHT22;997;48.448;8.924;2023-11-21T03:08:38;8.40;99.90
1992;DHT22;997;48.448;8.924;2023-11-21T03:11:04;8.50;99.90
1992;DHT22;997;48.448;8.924;2023-11-21T03:13:30;8.50;99.90
1992;DHT22;997;48.448;8.924;2023-11-21T03:15:55;8.50;99.90
1992;DHT22;997;48.448;8.924;2023-11-21T03:18:21;8.50;99.90
1992;DHT22;997;48.448;8.924;2023-11-21T03:20:53;8.50;99.90
1992;DHT22;997;48.448;8.924;2023-11-21T03:23:19;8.50;99.90
1992;DHT22;997;48.448;8.924;2023-11-21T03:25:45;8.50;99.90
1992;DHT22;997;48.448;8.924;2023-11-21T03:28:10;8.40;99.90
1992;DHT22;997;48.448;8.924;2023-11-21T03:30:36;8.40;99.90
1992;DHT22;997;48.448;8.924;2023-11-21T03:33:02;8.30;99.90
1992;DHT22;997;48.448;8.924;2023-11-21T03:35:27;8.20;99.90
1992;DHT22;997;48.448;8.924;2023-11-21T03:37:53;8.10;99.90
1992;DHT22;997;48.448;8.924;2023-11-21T03:40:19;8.10;99.90
1992;DHT22;997;48.448;8.924;2023-11-21T03:42:46;8.10;99.90
1992;DHT22;997;48.448;8.924;2023-11-21T03:45:12;8.10;99.90
1992;DHT22;997;48.448;8.924;2023-11-21T03:47:41;8.00;99.90
1992;DHT22;997;48.448;8.924;2023-11-21T03:50:07;8.00;99.90
1992;DHT22;997;48.448;8.924;2023-11-21T03:52:34;8.00;99.90
1992;DHT22;997;48.448;8.924;2023-11-21T03:55:00;8.00;99.90
1992;DHT22;997;48.448;8.924;2023-11-21T03:57:26;8.10;99.90
1992;DHT22;997;48.448;8.924;2023-11-21T03:59:53;8.10;99.90
1992;DHT22;997;48.448;8.924;2023-11-21T04:02:19;8.10;99.90
1992;DHT22;997;48.448;8.924;2023-11-21T04:04:45;8.10;99.90
1992;DHT22;997;48.448;8.924;2023-11-21T04:07:11;8.10;99.90
1992;DHT22;997;48.448;8.924;2023-11-21T04:09:39;8.00;99.90
1992;DHT22;997;48.448;8.924;2023-11-21T04:12:05;8.00;99.90
1992;DHT22;997;48.448;8.924;2023-11-21T04:14:31;8.00;99.90
1992;DHT22;997;48.448;8.924;2023-11-21T04:16:57;8.00;99.90
1992;DHT22;997;48.448;8.924;2023-11-21T04:19:23;8.00;99.90
1992;DHT22;997;48.448;8.924;2023-11-21T04:21:49;8.00;99.90
1992;DHT22;997;48.448;8.924;2023-11-21T04:24:15;8.10;99.90
1992;DHT22;997;48.448;8.924;2023-11-21T04:26:40;8.10;99.90
1992;DHT22;997;48.448;8.924;2023-11-21T04:29:06;8.10;99.90
1992;DHT22;997;48.448;8.924;2023-11-21T04:31:32;8.20;99.90
1992;DHT22;997;48.448;8.924;2023-11-21T04:33:57;8.20;99.90
1992;DHT22;997;48.448;8.924;2023-11-21T04:36:23;8.10;99.90
1992;DHT22;997;48.448;8.924;2023-11-21T04:38:49;8.10;99.90
1992;DHT22;997;48.448;8.924;2023-11-21T04:41:15;8.10;99.90
1992;DHT22;997;48.448;8.924;2023-11-21T04:43:41;8.10;99.90
1992;DHT22;997;48.448;8.924;2023-11-21T04:46:08;8.20;99.90
1992;DHT22;997;48.448;8.924;2023-11-21T04:48:34;8.20;99.90
1992;DHT22;997;48.448;8.924;2023-11-21T04:50:59;8.30;99.90
1992;DHT22;997;48.448;8.924;2023-11-21T04:53:25;8.30;99.90
1992;DHT22;997;48.448;8.924;2023-11-21T04:55:51;8.30;99.90
1992;DHT22;997;48.448;8.924;2023-11-21T04:58:16;8.30;99.90
1992;DHT22;997;48.448;8.924;2023-11-21T05:00:42;8.30;99.90
1992;DHT22;997;48.448;8.924;2023-11-21T05:03:09;8.40;99.90
1992;DHT22;997;48.448;8.924;2023-11-21T05:05:35;8.40;99.90
1992;DHT22;997;48.448;8.924;2023-11-21T05:08:01;8.40;99.90
1992;DHT22;997;48.448;8.924;2023-11-21T05:10:27;8.50;99.90
1992;DHT22;997;48.448;8.924;2023-11-21T05:12:53;8.60;99.90
1992;DHT22;997;48.448;8.924;2023-11-21T05:15:18;8.60;99.90
1992;DHT22;997;48.448;8.924;2023-11-21T05:17:44;8.60;99.90
1992;DHT22;997;48.448;8.924;2023-11-21T05:20:11;8.70;99.90
1992;DHT22;997;48.448;8.924;2023-11-21T05:22:38;8.70;99.90
1992;DHT22;997;48.448;8.924;2023-11-21T05:25:05;8.60;99.90
1992;DHT22;997;48.448;8.924;2023-11-21T05:27:31;8.70;99.90
1992;DHT22;997;48.448;8.924;2023-11-21T05:29:57;8.70;99.90
1992;DHT22;997;48.448;8.924;2023-11-21T05:32:26;8.70;99.90
1992;DHT22;997;48.448;8.924;2023-11-21T05:34:52;8.70;99.90
1992;DHT22;997;48.448;8.924;2023-11-21T05:37:18;8.70;99.90
1992;DHT22;997;48.448;8.924;2023-11-21T05:39:44;8.70;99.90
1992;DHT22;997;48.448;8.924;2023-11-21T05:42:09;8.80;99.90
1992;DHT22;997;48.448;8.924;2023-11-21T05:44:37;8.70;99.90
1992;DHT22;997;48.448;8.924;2023-11-21T05:47:03;8.70;99.90
1992;DHT22;997;48.448;8.924;2023-11-21T05:49:29;8.80;99.90
1992;DHT22;997;48.448;8.924;2023-11-21T05:51:56;8.80;99.90
1992;DHT22;997;48.448;8.924;2023-11-21T05:54:22;8.80;99.90
1992;DHT22;997;48.448;8.924;2023-11-21T05:56:49;8.80;99.90
1992;DHT22;997;48.448;8.924;2023-11-21T05:59:15;8.80;99.90
1992;DHT22;997;48.448;8.924;2023-11-21T06:01:40;8.80;99.90
1992;DHT22;997;48.448;8.924;2023-11-21T06:04:06;8.80;99.90
1992;DHT22;997;48.448;8.924;2023-11-21T06:06:33;8.50;99.90
1992;DHT22;997;48.448;8.924;2023-11-21T06:08:59;8.30;99.90
1992;DHT22;997;48.448;8.924;2023-11-21T06:11:25;8.30;99.90
1992;DHT22;997;48.448;8.924;2023-11-21T06:13:51;8.10;99.90
1992;DHT22;997;48.448;8.924;2023-11-21T06:16:19;8.10;99.90
1992;DHT22;997;48.448;8.924;2023-11-21T06:18:47;8.20;99.90
1992;DHT22;997;48.448;8.924;2023-11-21T06:21:13;8.20;99.90
1992;DHT22;997;48.448;8.924;2023-11-21T06:23:39;8.10;99.90
1992;DHT22;997;48.448;8.924;2023-11-21T06:26:05;8.10;99.90
1992;DHT22;997;48.448;8.924;2023-11-21T06:28:32;8.10;99.90
1992;DHT22;997;48.448;8.924;2023-11-21T06:30:57;8.10;99.90
1992;DHT22;997;48.448;8.924;2023-11-21T06:33:24;8.00;99.90
1992;DHT22;997;48.448;8.924;2023-11-21T06:35:52;8.10;99.90
1992;DHT22;997;48.448;8.924;2023-11-21T06:38:18;8.10;99.90
1992;DHT22;997;48.448;8.924;2023-11-21T06:40:45;8.00;99.90
1992;DHT22;997;48.448;8.924;2023-11-21T06:43:11;8.10;99.90
1992;DHT22;997;48.448;8.924;2023-11-21T06:45:36;8.10;99.90
1992;DHT22;997;48.448;8.924;2023-11-21T06:48:02;8.10;99.90
1992;DHT22;997;48.448;8.924;2023-11-21T06:50:28;8.20;99.90
1992;DHT22;997;48.448;8.924;2023-11-21T06:52:53;8.20;99.90
1992;DHT22;997;48.448;8.924;2023-11-21T06:55:19;8.20;99.90
1992;DHT22;997;48.448;8.924;2023-11-21T06:57:45;8.20;99.90
1992;DHT22;997;48.448;8.924;2023-11-21T07:00:13;8.30;99.90
1992;DHT22;997;48.448;8.924;2023-11-21T07:02:38;8.40;99.90
1992;DHT22;997;48.448;8.924;2023-11-21T07:05:05;8.40;99.90
1992;DHT22;997;48.448;8.924;2023-11-21T07:07:31;8.40;99.90
1992;DHT22;997;48.448;8.924;2023-11-21T07:09:56;8.30;99.90
1992;DHT22;997;48.448;8.924;2023-11-21T07:12:22;8.30;99.90
1992;DHT22;997;48.448;8.924;2023-11-21T07:14:49;8.30;99.90
1992;DHT22;997;48.448;8.924;2023-11-21T07:17:15;8.20;99.90
1992;DHT22;997;48.448;8.924;2023-11-21T07:19:42;8.30;99.90
1992;DHT22;997;48.448;8.924;2023-11-21T07:22:08;8.20;99.90
1992;DHT22;997;48.448;8.924;2023-11-21T07:24:34;8.20;99.90
1992;DHT22;997;48.448;8.924;2023-11-21T07:27:00;8.10;99.90
1992;DHT22;997;48.448;8.924;2023-11-21T07:29:26;8.10;99.90
1992;DHT22;997;48.448;8.924;2023-11-21T07:31:53;8.20;99.90
1992;DHT22;997;48.448;8.924;2023-11-21T07:34:20;8.20;99.90
1992;DHT22;997;48.448;8.924;2023-11-21T07:36:46;8.30;99.90
1992;DHT22;997;48.448;8.924;2023-11-21T07:39:12;8.30;99.90
1992;DHT22;997;48.448;8.924;2023-11-21T07:41:38;8.40;99.90
1992;DHT22;997;48.448;8.924;2023-11-21T07:44:10;8.40;99.90
1992;DHT22;997;48.448;8.924;2023-11-21T07:46:36;8.40;99.90
1992;DHT22;997;48.448;8.924;2023-11-21T07:49:01;8.40;99.90
1992;DHT22;997;48.448;8.924;2023-11-21T07:51:27;8.40;99.90
1992;DHT22;997;48.448;8.924;2023-11-21T07:53:53;8.50;99.90
1992;DHT22;997;48.448;8.924;2023-11-21T07:56:18;8.60;99.90
1992;DHT22;997;48.448;8.924;2023-11-21T07:58:44;8.60;99.90
1992;DHT22;997;48.448;8.924;2023-11-21T08:01:10;8.70;99.90
1992;DHT22;997;48.448;8.924;2023-11-21T08:03:37;8.80;99.90
1992;DHT22;997;48.448;8.924;2023-11-21T08:06:02;8.80;99.90
1992;DHT22;997;48.448;8.924;2023-11-21T08:08:31;9.00;99.90
1992;DHT22;997;48.448;8.924;2023-11-21T08:10:57;9.00;99.90
1992;DHT22;997;48.448;8.924;2023-11-21T08:13:27;8.90;99.90
1992;DHT22;997;48.448;8.924;2023-11-21T08:15:59;8.90;99.90
1992;DHT22;997;48.448;8.924;2023-11-21T08:18:28;9.00;99.90
1992;DHT22;997;48.448;8.924;2023-11-21T08:20:55;9.00;99.90
1992;DHT22;997;48.448;8.924;2023-11-21T08:23:22;9.10;99.90
1992;DHT22;997;48.448;8.924;2023-11-21T08:25:54;9.00;99.90
1992;DHT22;997;48.448;8.924;2023-11-21T08:28:20;9.00;99.90
1992;DHT22;997;48.448;8.924;2023-11-21T08:30:47;9.10;99.90
1992;DHT22;997;48.448;8.924;2023-11-21T08:33:13;9.10;99.90
1992;DHT22;997;48.448;8.924;2023-11-21T08:35:39;9.20;99.90
1992;DHT22;997;48.448;8.924;2023-11-21T08:38:05;9.20;99.90
1992;DHT22;997;48.448;8.924;2023-11-21T08:40:30;9.20;99.90
1992;DHT22;997;48.448;8.924;2023-11-21T08:42:56;9.20;99.90
1992;DHT22;997;48.448;8.924;2023-11-21T08:45:24;9.30;99.90
1992;DHT22;997;48.448;8.924;2023-11-21T08:47:51;9.20;99.90
1992;DHT22;997;48.448;8.924;2023-11-21T08:50:17;9.30;99.90
1992;DHT22;997;48.448;8.924;2023-11-21T08:52:44;9.20;99.90
1992;DHT22;997;48.448;8.924;2023-11-21T08:55:11;9.20;99.90
1992;DHT22;997;48.448;8.924;2023-11-21T08:57:42;9.30;99.90
1992;DHT22;997;48.448;8.924;2023-11-21T09:00:09;9.30;99.90
1992;DHT22;997;48.448;8.924;2023-11-21T09:02:38;9.20;99.90
1992;DHT22;997;48.448;8.924;2023-11-21T09:05:05;9.20;99.90
1992;DHT22;997;48.448;8.924;2023-11-21T09:07:31;9.20;99.90
1992;DHT22;997;48.448;8.924;2023-11-21T09:09:56;9.20;99.90
1992;DHT22;997;48.448;8.924;2023-11-21T09:12:22;9.20;99.90
1992;DHT22;997;48.448;8.924;2023-11-21T09:14:50;9.20;99.90
1992;DHT22;997;48.448;8.924;2023-11-21T09:17:16;9.20;99.90
1992;DHT22;997;48.448;8.924;2023-11-21T09:19:42;9.20;99.90
1992;DHT22;997;48.448;8.924;2023-11-21T09:22:10;9.20;99.90
1992;DHT22;997;48.448;8.924;2023-11-21T09:24:36;9.30;99.90
1992;DHT22;997;48.448;8.924;2023-11-21T09:27:03;9.40;99.90
1992;DHT22;997;48.448;8.924;2023-11-21T09:29:30;9.40;99.90
1992;DHT22;997;48.448;8.924;2023-11-21T09:31:57;9.40;99.90
1992;DHT22;997;48.448;8.924;2023-11-21T09:34:25;9.60;99.90
1992;DHT22;997;48.448;8.924;2023-11-21T09:36:51;9.60;99.90
1992;DHT22;997;48.448;8.924;2023-11-21T09:39:17;9.60;99.90
1992;DHT22;997;48.448;8.924;2023-11-21T09:41:49;9.70;99.90
1992;DHT22;997;48.448;8.924;2023-11-21T09:44:18;9.70;99.90
1992;DHT22;997;48.448;8.924;2023-11-21T09:46:47;9.60;99.90
1992;DHT22;997;48.448;8.924;2023-11-21T09:49:18;9.70;99.90
1992;DHT22;997;48.448;8.924;2023-11-21T09:51:47;9.70;99.90
1992;DHT22;997;48.448;8.924;2023-11-21T09:54:15;9.80;99.90
1992;DHT22;997;48.448;8.924;2023-11-21T09:56:43;9.80;99.90
1992;DHT22;997;48.448;8.924;2023-11-21T09:59:13;9.80;99.90
1992;DHT22;997;48.448;8.924;2023-11-21T10:01:41;9.70;99.90
1992;DHT22;997;48.448;8.924;2023-11-21T10:04:08;9.80;99.90
1992;DHT22;997;48.448;8.924;2023-11-21T10:06:40;9.80;99.90
1992;DHT22;997;48.448;8.924;2023-11-21T10:09:12;9.90;99.90
1992;DHT22;997;48.448;8.924;2023-11-21T10:11:42;10.00;99.90
1992;DHT22;997;48.448;8.924;2023-11-21T10:14:12;10.00;99.90
1992;DHT22;997;48.448;8.924;2023-11-21T10:16:40;10.00;99.90
1992;DHT22;997;48.448;8.924;2023-11-21T10:19:08;9.90;99.90
1992;DHT22;997;48.448;8.924;2023-11-21T10:21:35;9.70;99.90
1992;DHT22;997;48.448;8.924;2023-11-21T10:24:01;9.80;99.90
1992;DHT22;997;48.448;8.924;2023-11-21T10:26:30;9.90;99.90
1992;DHT22;997;48.448;8.924;2023-11-21T10:29:02;10.00;99.90
1992;DHT22;997;48.448;8.924;2023-11-21T10:31:30;10.00;99.90
1992;DHT22;997;48.448;8.924;2023-11-21T10:34:19;10.00;99.90
1992;DHT22;997;48.448;8.924;2023-11-21T10:36:45;10.00;99.90
1992;DHT22;997;48.448;8.924;2023-11-21T10:39:21;10.00;99.90
1992;DHT22;997;48.448;8.924;2023-11-21T10:41:49;9.90;99.90
1992;DHT22;997;48.448;8.924;2023-11-21T10:44:17;9.90;99.90
1992;DHT22;997;48.448;8.924;2023-11-21T10:46:51;9.90;99.90
1992;DHT22;997;48.448;8.924;2023-11-21T10:49:20;9.90;99.90
1992;DHT22;997;48.448;8.924;2023-11-21T10:51:46;10.00;99.90
1992;DHT22;997;48.448;8.924;2023-11-21T10:54:20;10.00;99.90
1992;DHT22;997;48.448;8.924;2023-11-21T10:56:49;10.00;99.90
1992;DHT22;997;48.448;8.924;2023-11-21T10:59:17;10.10;99.90
1992;DHT22;997;48.448;8.924;2023-11-21T11:01:46;10.10;99.90
1992;DHT22;997;48.448;8.924;2023-11-21T11:04:14;10.10;99.90
1992;DHT22;997;48.448;8.924;2023-11-21T11:06:48;10.10;99.90
1992;DHT22;997;48.448;8.924;2023-11-21T11:09:17;10.10;99.90
1992;DHT22;997;48.448;8.924;2023-11-21T11:11:43;10.20;99.90
1992;DHT22;997;48.448;8.924;2023-11-21T11:14:12;10.30;99.90
1992;DHT22;997;48.448;8.924;2023-11-21T11:16:42;10.40;99.90
1992;DHT22;997;48.448;8.924;2023-11-21T11:19:09;10.40;99.90
1992;DHT22;997;48.448;8.924;2023-11-21T11:22:32;10.40;99.90
1992;DHT22;997;48.448;8.924;2023-11-21T11:27:52;10.40;99.90
1992;DHT22;997;48.448;8.924;2023-11-21T11:33:11;10.40;99.90
1992;DHT22;997;48.448;8.924;2023-11-21T11:35:46;10.50;99.90
1992;DHT22;997;48.448;8.924;2023-11-21T11:38:14;10.40;99.90
1992;DHT22;997;48.448;8.924;2023-11-21T11:40:41;10.40;99.90
1992;DHT22;997;48.448;8.924;2023-11-21T11:43:07;10.40;99.90
1992;DHT22;997;48.448;8.924;2023-11-21T11:45:34;10.40;99.90
1992;DHT22;997;48.448;8.924;2023-11-21T11:48:02;10.50;99.90
1992;DHT22;997;48.448;8.924;2023-11-21T11:50:29;10.30;99.90
1992;DHT22;997;48.448;8.924;2023-11-21T11:52:57;10.30;99.90
1992;DHT22;997;48.448;8.924;2023-11-21T11:55:37;10.30;99.90
1992;DHT22;997;48.448;8.924;2023-11-21T11:58:06;10.40;99.90
1992;DHT22;997;48.448;8.924;2023-11-21T12:02:59;10.30;99.90
1992;DHT22;997;48.448;8.924;2023-11-21T12:05:29;10.30;99.90
1992;DHT22;997;48.448;8.924;2023-11-21T12:08:00;10.20;99.90
1992;DHT22;997;48.448;8.924;2023-11-21T12:10:27;10.20;99.90
1992;DHT22;997;48.448;8.924;2023-11-21T12:12:57;10.20;99.90
1992;DHT22;997;48.448;8.924;2023-11-21T12:15:25;10.20;99.90
1992;DHT22;997;48.448;8.924;2023-11-21T12:17:52;10.20;99.90
1992;DHT22;997;48.448;8.924;2023-11-21T12:20:20;10.20;99.90
1992;DHT22;997;48.448;8.924;2023-11-21T12:22:48;10.40;99.90
1992;DHT22;997;48.448;8.924;2023-11-21T12:25:22;10.40;99.90
1992;DHT22;997;48.448;8.924;2023-11-21T12:27:49;10.30;99.90
1992;DHT22;997;48.448;8.924;2023-11-21T12:30:16;10.40;99.90
1992;DHT22;997;48.448;8.924;2023-11-21T12:32:49;10.50;99.90
1992;DHT22;997;48.448;8.924;2023-11-21T12:35:16;10.50;99.90
1992;DHT22;997;48.448;8.924;2023-11-21T12:37:45;10.60;99.90
1992;DHT22;997;48.448;8.924;2023-11-21T12:40:12;10.70;99.90
1992;DHT22;997;48.448;8.924;2023-11-21T12:42:52;10.80;99.90
1992;DHT22;997;48.448;8.924;2023-11-21T12:45:23;10.90;99.90
1992;DHT22;997;48.448;8.924;2023-11-21T12:47:52;10.90;99.90
1992;DHT22;997;48.448;8.924;2023-11-21T12:50:23;11.00;99.90
1992;DHT22;997;48.448;8.924;2023-11-21T12:52:52;11.00;99.90
1992;DHT22;997;48.448;8.924;2023-11-21T12:55:22;11.00;99.90
1992;DHT22;997;48.448;8.924;2023-11-21T12:57:55;11.10;99.90
1992;DHT22;997;48.448;8.924;2023-11-21T13:03:04;11.10;99.90
1992;DHT22;997;48.448;8.924;2023-11-21T13:05:32;11.00;99.90
1992;DHT22;997;48.448;8.924;2023-11-21T13:08:01;10.80;99.90
1992;DHT22;997;48.448;8.924;2023-11-21T13:10:30;11.00;99.90
1992;DHT22;997;48.448;8.924;2023-11-21T13:13:00;10.80;99.90
1992;DHT22;997;48.448;8.924;2023-11-21T13:15:29;10.40;99.90
1992;DHT22;997;48.448;8.924;2023-11-21T13:17:57;10.60;99.90
1992;DHT22;997;48.448;8.924;2023-11-21T13:20:26;10.40;99.90
1992;DHT22;997;48.448;8.924;2023-11-21T13:22:54;10.20;99.90
1992;DHT22;997;48.448;8.924;2023-11-21T13:25:23;10.20;99.90
1992;DHT22;997;48.448;8.924;2023-11-21T13:27:49;10.20;99.90
1992;DHT22;997;48.448;8.924;2023-11-21T13:30:16;10.20;99.90
1992;DHT22;997;48.448;8.924;2023-11-21T13:32:45;10.20;99.90
1992;DHT22;997;48.448;8.924;2023-11-21T13:35:12;10.10;99.90
1992;DHT22;997;48.448;8.924;2023-11-21T13:37:48;10.30;99.90
1992;DHT22;997;48.448;8.924;2023-11-21T13:40:20;10.30;99.90
1992;DHT22;997;48.448;8.924;2023-11-21T13:42:51;10.40;99.90
1992;DHT22;997;48.448;8.924;2023-11-21T13:45:23;10.50;99.90
1992;DHT22;997;48.448;8.924;2023-11-21T13:47:51;10.50;99.90
1992;DHT22;997;48.448;8.924;2023-11-21T13:50:20;10.50;99.90
1992;DHT22;997;48.448;8.924;2023-11-21T13:52:51;10.50;99.90
1992;DHT22;997;48.448;8.924;2023-11-21T13:55:18;10.50;99.90
1992;DHT22;997;48.448;8.924;2023-11-21T13:57:44;10.50;99.90
1992;DHT22;997;48.448;8.924;2023-11-21T14:00:18;10.60;99.90
1992;DHT22;997;48.448;8.924;2023-11-21T14:03:07;10.40;99.90
1992;DHT22;997;48.448;8.924;2023-11-21T14:05:43;10.50;99.90
1992;DHT22;997;48.448;8.924;2023-11-21T14:08:10;10.40;99.90
1992;DHT22;997;48.448;8.924;2023-11-21T14:10:37;10.20;99.90
1992;DHT22;997;48.448;8.924;2023-11-21T14:13:08;10.30;99.90
1992;DHT22;997;48.448;8.924;2023-11-21T14:15:36;10.20;99.90
1992;DHT22;997;48.448;8.924;2023-11-21T14:18:07;10.10;99.90
1992;DHT22;997;48.448;8.924;2023-11-21T14:20:36;10.00;99.90
1992;DHT22;997;48.448;8.924;2023-11-21T14:23:03;10.00;99.90
1992;DHT22;997;48.448;8.924;2023-11-21T14:25:31;9.90;99.90
1992;DHT22;997;48.448;8.924;2023-11-21T14:27:58;9.90;99.90
1992;DHT22;997;48.448;8.924;2023-11-21T14:30:24;9.80;99.90
1992;DHT22;997;48.448;8.924;2023-11-21T14:32:50;9.80;99.90
1992;DHT22;997;48.448;8.924;2023-11-21T15:01:02;9.80;99.90
1992;DHT22;997;48.448;8.924;2023-11-21T15:03:29;9.90;99.90
1992;DHT22;997;48.448;8.924;2023-11-21T15:06:02;9.80;99.90
1992;DHT22;997;48.448;8.924;2023-11-21T15:08:54;9.70;99.90
1992;DHT22;997;48.448;8.924;2023-11-21T15:11:40;9.60;99.90
1992;DHT22;997;48.448;8.924;2023-11-21T15:14:07;9.30;99.90
1992;DHT22;997;48.448;8.924;2023-11-21T15:16:35;9.00;99.90
1992;DHT22;997;48.448;8.924;2023-11-21T15:19:11;8.90;99.90
1992;DHT22;997;48.448;8.924;2023-11-21T15:21:44;8.80;99.90
1992;DHT22;997;48.448;8.924;2023-11-21T15:24:11;8.70;99.90
1992;DHT22;997;48.448;8.924;2023-11-21T15:26:37;8.70;99.90
1992;DHT22;997;48.448;8.924;2023-11-21T15:29:03;8.70;99.90
1992;DHT22;997;48.448;8.924;2023-11-21T15:31:28;8.70;99.90
1992;DHT22;997;48.448;8.924;2023-11-21T15:33:54;8.80;99.90
1992;DHT22;997;48.448;8.924;2023-11-21T15:36:24;8.90;99.90
1992;DHT22;997;48.448;8.924;2023-11-21T15:38:50;9.10;99.90
1992;DHT22;997;48.448;8.924;2023-11-21T15:41:15;9.30;99.90
1992;DHT22;997;48.448;8.924;2023-11-21T15:43:41;9.50;99.90
1992;DHT22;997;48.448;8.924;2023-11-21T15:46:06;9.50;99.90
1992;DHT22;997;48.448;8.924;2023-11-21T15:48:36;9.50;99.90
1992;DHT22;997;48.448;8.924;2023-11-21T15:51:06;9.40;99.90
1992;DHT22;997;48.448;8.924;2023-11-21T15:53:35;9.50;99.90
1992;DHT22;997;48.448;8.924;2023-11-21T15:56:04;9.50;99.90
1992;DHT22;997;48.448;8.924;2023-11-21T15:58:29;9.50;99.90
1992;DHT22;997;48.448;8.924;2023-11-21T16:00:55;9.50;99.90
1992;DHT22;997;48.448;8.924;2023-11-21T16:03:23;9.50;99.90
1992;DHT22;997;48.448;8.924;2023-11-21T16:05:48;9.50;99.90
1992;DHT22;997;48.448;8.924;2023-11-21T16:08:14;9.50;99.90
1992;DHT22;997;48.448;8.924;2023-11-21T16:10:40;9.50;99.90
1992;DHT22;997;48.448;8.924;2023-11-21T16:13:06;9.30;99.90
1992;DHT22;997;48.448;8.924;2023-11-21T16:15:33;9.40;99.90
1992;DHT22;997;48.448;8.924;2023-11-21T16:17:59;9.40;99.90
1992;DHT22;997;48.448;8.924;2023-11-21T16:20:25;9.30;99.90
1992;DHT22;997;48.448;8.924;2023-11-21T16:22:51;9.40;99.90
1992;DHT22;997;48.448;8.924;2023-11-21T16:25:17;9.40;99.90
1992;DHT22;997;48.448;8.924;2023-11-21T16:27:43;9.30;99.90
1992;DHT22;997;48.448;8.924;2023-11-21T16:30:09;9.30;99.90
1992;DHT22;997;48.448;8.924;2023-11-21T16:32:35;9.10;99.90
1992;DHT22;997;48.448;8.924;2023-11-21T16:35:05;9.00;99.90
1992;DHT22;997;48.448;8.924;2023-11-21T16:37:31;8.90;99.90
1992;DHT22;997;48.448;8.924;2023-11-21T16:39:57;8.70;99.90
1992;DHT22;997;48.448;8.924;2023-11-21T16:42:24;8.70;99.90
1992;DHT22;997;48.448;8.924;2023-11-21T16:44:50;8.70;99.90
1992;DHT22;997;48.448;8.924;2023-11-21T16:47:17;8.80;99.90
1992;DHT22;997;48.448;8.924;2023-11-21T16:49:44;8.80;99.90
1992;DHT22;997;48.448;8.924;2023-11-21T16:52:10;8.80;99.90
1992;DHT22;997;48.448;8.924;2023-11-21T16:54:36;8.90;99.90
1992;DHT22;997;48.448;8.924;2023-11-21T16:57:02;8.90;99.90
1992;DHT22;997;48.448;8.924;2023-11-21T16:59:28;8.70;99.90
1992;DHT22;997;48.448;8.924;2023-11-21T17:01:54;8.90;99.90
1992;DHT22;997;48.448;8.924;2023-11-21T17:04:20;8.90;99.90
1992;DHT22;997;48.448;8.924;2023-11-21T17:06:46;8.90;99.90
1992;DHT22;997;48.448;8.924;2023-11-21T17:09:12;9.00;99.90